createdAt,value
2018-06-09T00:00:04.575Z,101563.42
2018-06-09T00:02:33.485Z,101560.83
2018-06-09T00:05:01.808Z,101555.28
2018-06-09T00:07:29.580Z,101547.72
2018-06-09T00:09:58.482Z,101546.37
2018-06-09T00:12:26.802Z,101541.78
2018-06-09T00:14:54.549Z,101535.11
2018-06-09T00:17:23.451Z,101532.64
2018-06-09T00:19:51.197Z,101531.73
2018-06-09T00:22:19.517Z,101529.01
2018-06-09T00:24:49.554Z,101533.92
2018-06-09T00:27:19.682Z,101533.35
2018-06-09T00:29:49.631Z,101531.54
2018-06-09T00:32:17.671Z,101532.05
2018-06-09T00:34:47.555Z,101530.47
2018-06-09T00:37:19.515Z,101530.41
2018-06-09T00:39:47.261Z,101535.13
2018-06-09T00:42:16.185Z,101531.70
2018-06-09T00:44:44.501Z,101531.35
2018-06-09T00:47:12.834Z,101529.01
2018-06-09T00:49:41.161Z,101534.58
2018-06-09T00:52:09.481Z,101539.93
2018-06-09T00:54:37.800Z,101547.95
2018-06-09T00:57:06.121Z,101550.94
2018-06-09T00:59:34.441Z,101547.53
2018-06-09T01:02:02.754Z,101544.89
2018-06-09T01:04:31.079Z,101544.70
2018-06-09T01:06:59.402Z,101545.33
2018-06-09T01:09:27.720Z,101545.04
2018-06-09T01:11:56.059Z,101546.78
2018-06-09T01:14:24.387Z,101544.55
2018-06-09T01:16:52.700Z,101545.63
2018-06-09T01:19:21.029Z,101547.26
2018-06-09T01:21:49.346Z,101549.78
2018-06-09T01:24:17.672Z,101552.41
2018-06-09T01:26:45.422Z,101551.91
2018-06-09T01:29:14.332Z,101552.39
2018-06-09T01:31:42.073Z,101549.58
2018-06-09T01:34:10.985Z,101547.06
2018-06-09T01:36:39.294Z,101542.10
2018-06-09T01:39:07.617Z,101535.41
2018-06-09T01:41:35.943Z,101536.41
2018-06-09T01:44:04.259Z,101536.89
2018-06-09T01:46:31.998Z,101537.08
2018-06-09T01:49:00.902Z,101536.89
2018-06-09T01:51:29.649Z,101540.88
2018-06-09T01:53:57.974Z,101540.95
2018-06-09T01:56:26.292Z,101544.56
2018-06-09T01:58:54.640Z,101540.23
2018-06-09T02:01:22.968Z,101535.47
2018-06-09T02:03:50.696Z,101530.03
2018-06-09T02:06:19.016Z,101528.50
2018-06-09T02:08:47.330Z,101528.92
2018-06-09T02:11:16.562Z,101531.52
2018-06-09T02:13:44.870Z,101527.61
2018-06-09T02:16:13.190Z,101534.87
2018-06-09T02:18:41.515Z,101537.70
2018-06-09T02:21:09.830Z,101540.97
2018-06-09T02:23:37.577Z,101543.55
2018-06-09T02:26:06.483Z,101548.66
2018-06-09T02:28:34.231Z,101545.22
2018-06-09T02:31:03.129Z,101551.03
2018-06-09T02:33:31.459Z,101551.37
2018-06-09T02:35:59.202Z,101552.52
2018-06-09T02:38:28.094Z,101550.86
2018-06-09T02:40:56.415Z,101552.47
2018-06-09T02:43:24.157Z,101550.87
2018-06-09T02:45:52.528Z,101549.80
2018-06-09T02:48:21.428Z,101552.44
2018-06-09T02:50:49.760Z,101553.56
2018-06-09T02:53:18.145Z,101553.33
2018-06-09T02:55:46.473Z,101547.87
2018-06-09T02:58:14.808Z,101556.08
2018-06-09T03:00:43.130Z,101558.89
2018-06-09T03:03:10.882Z,101557.33
2018-06-09T03:05:39.783Z,101556.61
2018-06-09T03:08:08.102Z,101556.64
2018-06-09T03:10:36.436Z,101558.95
2018-06-09T03:13:04.781Z,101563.31
2018-06-09T03:15:33.130Z,101565.90
2018-06-09T03:18:00.858Z,101570.06
2018-06-09T03:20:29.765Z,101575.25
2018-06-09T03:22:58.091Z,101581.70
2018-06-09T03:25:26.415Z,101587.03
2018-06-09T03:27:54.750Z,101591.09
2018-06-09T03:30:22.490Z,101591.38
2018-06-09T03:32:51.395Z,101584.69
2018-06-09T03:35:19.128Z,101586.09
2018-06-09T03:37:47.442Z,101580.91
2018-06-09T03:40:16.349Z,101584.89
2018-06-09T03:42:44.684Z,101590.05
2018-06-09T03:45:13.000Z,101588.19
2018-06-09T03:47:41.329Z,101582.07
2018-06-09T03:50:09.641Z,101576.40
2018-06-09T03:52:37.967Z,101575.79
2018-06-09T03:55:06.343Z,101572.41
2018-06-09T03:57:34.660Z,101570.37
2018-06-09T04:00:02.978Z,101566.30
2018-06-09T04:02:31.306Z,101574.19
2018-06-09T04:04:59.867Z,101570.55
2018-06-09T04:07:27.977Z,101576.53
2018-06-09T04:09:56.306Z,101575.67
2018-06-09T04:12:24.637Z,101576.43
2018-06-09T04:14:52.958Z,101571.50
2018-06-09T04:17:20.700Z,101574.16
2018-06-09T04:19:49.027Z,101578.28
2018-06-09T04:22:17.355Z,101575.77
2018-06-09T04:24:46.291Z,101579.36
2018-06-09T04:27:14.618Z,101584.95
2018-06-09T04:29:42.949Z,101583.94
2018-06-09T04:32:11.286Z,101584.81
2018-06-09T04:34:39.827Z,101584.92
2018-06-09T04:37:07.945Z,101581.50
2018-06-09T04:39:35.695Z,101585.50
2018-06-09T04:42:04.602Z,101588.28
2018-06-09T04:44:32.926Z,101589.97
2018-06-09T04:47:00.674Z,101591.09
2018-06-09T04:49:28.985Z,101585.82
2018-06-09T04:51:57.886Z,101587.44
2018-06-09T04:54:26.203Z,101590.30
2018-06-09T04:56:53.997Z,101591.72
2018-06-09T04:59:22.929Z,101589.55
2018-06-09T05:01:51.249Z,101592.42
2018-06-09T05:04:19.566Z,101594.06
2018-06-09T05:06:47.917Z,101596.78
2018-06-09T05:09:16.228Z,101597.95
2018-06-09T05:11:44.552Z,101599.79
2018-06-09T05:14:12.289Z,101602.92
2018-06-09T05:16:41.201Z,101603.74
2018-06-09T05:19:09.522Z,101601.92
2018-06-09T05:21:38.015Z,101601.91
2018-06-09T05:24:06.911Z,101603.02
2018-06-09T05:26:35.240Z,101604.95
2018-06-09T05:29:03.565Z,101607.09
2018-06-09T05:31:31.883Z,101606.41
2018-06-09T05:34:00.221Z,101602.69
2018-06-09T05:36:27.970Z,101599.89
2018-06-09T05:38:56.292Z,101603.00
2018-06-09T05:41:25.236Z,101601.54
2018-06-09T05:43:53.559Z,101603.78
2018-06-09T05:46:21.881Z,101601.69
2018-06-09T05:48:49.644Z,101603.97
2018-06-09T05:51:18.547Z,101605.88
2018-06-09T05:53:46.871Z,101608.14
2018-06-09T05:56:15.197Z,101603.29
2018-06-09T05:58:43.613Z,101605.09
2018-06-09T06:01:11.942Z,101604.09
2018-06-09T06:03:39.879Z,101607.05
2018-06-09T06:06:08.610Z,101600.39
2018-06-09T06:08:36.405Z,101597.51
2018-06-09T06:11:04.689Z,101599.89
2018-06-09T06:13:33.623Z,101603.16
2018-06-09T06:16:01.935Z,101607.84
2018-06-09T06:18:30.267Z,101607.13
2018-06-09T06:20:58.013Z,101601.25
2018-06-09T06:23:26.937Z,101596.30
2018-06-09T06:25:55.245Z,101592.73
2018-06-09T06:28:23.046Z,101592.39
2018-06-09T06:30:51.937Z,101593.18
2018-06-09T06:33:20.247Z,101593.34
2018-06-09T06:35:48.801Z,101600.05
2018-06-09T06:38:16.362Z,101602.08
2018-06-09T06:40:44.703Z,101603.95
2018-06-09T06:43:13.027Z,101604.68
2018-06-09T06:45:41.994Z,101607.62
2018-06-09T06:48:10.316Z,101608.35
2018-06-09T06:50:38.652Z,101617.09
2018-06-09T06:53:06.988Z,101621.11
2018-06-09T06:55:35.306Z,101625.08
2018-06-09T06:58:03.702Z,101620.45
2018-06-09T07:00:32.092Z,101618.93
2018-06-09T07:02:59.842Z,101611.17
2018-06-09T07:05:28.758Z,101610.97
2018-06-09T07:07:57.105Z,101616.33
2018-06-09T07:10:25.384Z,101613.66
2018-06-09T07:12:53.702Z,101616.62
2018-06-09T07:15:22.030Z,101619.71
2018-06-09T07:17:50.356Z,101620.47
2018-06-09T07:20:18.691Z,101623.31
2018-06-09T07:22:47.012Z,101631.41
2018-06-09T07:25:15.342Z,101628.72
2018-06-09T07:27:43.668Z,101628.23
2018-06-09T07:30:12.005Z,101622.03
2018-06-09T07:32:40.331Z,101623.64
2018-06-09T07:35:08.131Z,101624.19
2018-06-09T07:37:36.790Z,101632.72
2018-06-09T07:40:05.304Z,101633.09
2018-06-09T07:42:33.624Z,101633.66
2018-06-09T07:45:01.953Z,101635.44
2018-06-09T07:47:30.105Z,101632.57
2018-06-09T07:49:58.054Z,101633.52
2018-06-09T07:52:26.376Z,101631.66
2018-06-09T07:54:56.877Z,101631.48
2018-06-09T07:57:23.629Z,101638.38
2018-06-09T07:59:51.477Z,101634.66
2018-06-09T08:02:20.954Z,101630.48
2018-06-09T08:04:49.272Z,101625.63
2018-06-09T08:07:17.607Z,101622.06
2018-06-09T08:09:46.153Z,101622.27
2018-06-09T08:12:14.264Z,101620.34
2018-06-09T08:14:42.595Z,101615.40
2018-06-09T08:17:10.348Z,101610.00
2018-06-09T08:19:39.254Z,101608.83
2018-06-09T08:22:07.577Z,101607.44
2018-06-09T08:24:35.904Z,101612.22
2018-06-09T08:27:04.457Z,101604.80
2018-06-09T08:29:32.573Z,101601.72
2018-06-09T08:32:00.909Z,101600.22
2018-06-09T08:34:29.461Z,101599.53
2018-06-09T08:36:56.980Z,101600.46
2018-06-09T08:39:25.897Z,101603.17
2018-06-09T08:41:54.256Z,101604.41
2018-06-09T08:44:22.005Z,101606.70
2018-06-09T08:46:50.907Z,101603.55
2018-06-09T08:49:20.279Z,101598.59
2018-06-09T08:51:47.596Z,101596.06
2018-06-09T08:54:15.928Z,101595.50
2018-06-09T08:56:44.273Z,101595.23
2018-06-09T08:59:12.592Z,101589.02
2018-06-09T09:01:40.348Z,101586.95
2018-06-09T09:04:09.286Z,101581.59
2018-06-09T09:06:37.613Z,101581.27
2018-06-09T09:09:05.941Z,101585.55
2018-06-09T09:11:34.283Z,101594.53
2018-06-09T09:14:02.612Z,101589.19
2018-06-09T09:16:30.389Z,101582.94
2018-06-09T09:18:59.264Z,101581.56
2018-06-09T09:21:27.590Z,101586.36
2018-06-09T09:23:56.863Z,101587.95
2018-06-09T09:26:25.197Z,101588.00
2018-06-09T09:28:53.528Z,101580.78
2018-06-09T09:31:21.852Z,101579.97
2018-06-09T09:33:50.181Z,101581.36
2018-06-09T09:36:17.934Z,101583.55
2018-06-09T09:38:47.091Z,101585.22
2018-06-09T09:41:15.429Z,101587.48
2018-06-09T09:43:43.176Z,101583.08
2018-06-09T09:46:12.098Z,101566.12
2018-06-09T09:48:39.834Z,101566.88
2018-06-09T09:51:08.772Z,101572.02
2018-06-09T09:53:36.612Z,101569.03
2018-06-09T09:56:04.998Z,101576.34
2018-06-09T09:58:33.840Z,101579.69
2018-06-09T10:01:02.384Z,101581.84
2018-06-09T10:03:30.932Z,101578.83
2018-06-09T10:05:59.113Z,101576.22
2018-06-09T10:08:27.425Z,101582.27
2018-06-09T10:10:55.745Z,101590.74
2018-06-09T10:13:24.063Z,101590.59
2018-06-09T10:15:51.972Z,101590.55
2018-06-09T10:18:22.119Z,101593.69
2018-06-09T10:20:50.448Z,101591.09
2018-06-09T10:23:18.774Z,101588.13
2018-06-09T10:25:47.091Z,101593.07
2018-06-09T10:28:15.418Z,101590.88
2018-06-09T10:30:43.776Z,101591.49
2018-06-09T10:33:29.092Z,101593.83
2018-06-09T10:35:57.309Z,101582.89
2018-06-09T10:38:25.649Z,101583.39
2018-06-09T10:40:54.572Z,101581.77
2018-06-09T10:43:22.292Z,101586.30
2018-06-09T10:45:51.201Z,101588.78
2018-06-09T10:48:19.532Z,101589.83
2018-06-09T10:50:47.854Z,101591.77
2018-06-09T10:53:15.608Z,101591.27
2018-06-09T10:55:45.560Z,101588.47
2018-06-09T10:58:13.877Z,101580.00
2018-06-09T11:00:42.273Z,101578.31
2018-06-09T11:03:10.048Z,101580.16
2018-06-09T11:05:38.362Z,101573.75
2018-06-09T11:08:06.760Z,101571.66
2018-06-09T11:10:35.657Z,101570.02
2018-06-09T11:13:03.976Z,101574.92
2018-06-09T11:15:32.657Z,101568.00
2018-06-09T11:18:01.909Z,101567.19
2018-06-09T11:20:30.578Z,101559.84
2018-06-09T11:22:58.899Z,101559.20
2018-06-09T11:25:31.734Z,101560.11
2018-06-09T11:28:00.056Z,101559.88
2018-06-09T11:30:32.416Z,101555.07
2018-06-09T11:32:56.392Z,101551.20
2018-06-09T11:35:25.377Z,101549.99
2018-06-09T11:37:53.133Z,101551.52
2018-06-09T11:40:23.397Z,101545.68
2018-06-09T11:42:51.818Z,101549.23
2018-06-09T11:45:19.692Z,101548.41
2018-06-09T11:47:50.212Z,101550.33
2018-06-09T11:50:24.158Z,101545.11
2018-06-09T11:52:52.671Z,101548.52
2018-06-09T11:55:21.349Z,101546.92
2018-06-09T11:57:49.644Z,101550.88
2018-06-09T12:00:18.032Z,101557.92
2018-06-09T12:02:45.730Z,101553.72
2018-06-09T12:05:14.290Z,101552.81
2018-06-09T12:07:44.000Z,101555.30
2018-06-09T12:10:12.435Z,101557.49
2018-06-09T12:12:41.502Z,101550.55
2018-06-09T12:15:09.826Z,101550.91
2018-06-09T12:17:38.166Z,101555.15
2018-06-09T12:20:06.484Z,101549.28
2018-06-09T12:22:34.806Z,101553.60
2018-06-09T12:25:03.188Z,101559.99
2018-06-09T12:27:31.463Z,101557.42
2018-06-09T12:29:59.789Z,101554.39
2018-06-09T12:32:28.240Z,101548.84
2018-06-09T12:34:55.944Z,101551.02
2018-06-09T12:37:24.848Z,101550.36
2018-06-09T12:39:52.585Z,101555.70
2018-06-09T12:42:24.865Z,101552.02
2018-06-09T12:44:53.712Z,101550.83
2018-06-09T12:47:22.044Z,101549.36
2018-06-09T12:49:50.369Z,101550.15
2018-06-09T12:52:18.686Z,101544.41
2018-06-09T12:54:47.027Z,101543.73
2018-06-09T12:57:14.759Z,101540.77
2018-06-09T12:59:43.650Z,101535.19
2018-06-09T13:02:11.974Z,101535.20
2018-06-09T13:04:40.294Z,101528.96
2018-06-09T13:07:08.608Z,101531.00
2018-06-09T13:09:36.417Z,101526.22
2018-06-09T13:12:05.328Z,101527.83
2018-06-09T13:14:33.636Z,101528.51
2018-06-09T13:17:01.380Z,101530.39
2018-06-09T13:19:30.294Z,101524.78
2018-06-09T13:21:58.615Z,101523.10
2018-06-09T13:24:26.934Z,101523.45
2018-06-09T13:26:55.258Z,101524.59
2018-06-09T13:29:23.571Z,101528.01
2018-06-09T13:31:51.893Z,101529.91
2018-06-09T13:34:20.210Z,101529.36
2018-06-09T13:36:47.953Z,101525.80
2018-06-09T13:39:17.173Z,101522.36
2018-06-09T13:41:45.490Z,101509.94
2018-06-09T13:44:13.827Z,101503.73
2018-06-09T13:46:42.161Z,101500.30
2018-06-09T13:49:09.885Z,101500.63
2018-06-09T13:51:38.781Z,101498.14
2018-06-09T13:54:07.121Z,101497.78
2018-06-09T13:56:35.452Z,101494.94
2018-06-09T13:59:03.761Z,101491.40
2018-06-09T14:01:32.121Z,101493.66
2018-06-09T14:04:00.430Z,101494.97
2018-06-09T14:06:28.740Z,101497.53
2018-06-09T14:08:57.054Z,101494.50
2018-06-09T14:11:25.376Z,101492.14
2018-06-09T14:13:53.751Z,101488.26
2018-06-09T14:16:21.490Z,101487.70
2018-06-09T14:18:50.379Z,101490.53
2018-06-09T14:21:18.300Z,101481.32
2018-06-09T14:23:47.017Z,101486.89
2018-06-09T14:26:16.038Z,101480.44
2018-06-09T14:28:44.357Z,101484.36
2018-06-09T14:31:12.691Z,101479.24
2018-06-09T14:33:41.035Z,101474.55
2018-06-09T14:36:08.785Z,101476.22
2018-06-09T14:38:37.694Z,101475.27
2018-06-09T14:41:05.438Z,101478.64
2018-06-09T14:43:34.350Z,101476.17
2018-06-09T14:46:02.707Z,101471.59
2018-06-09T14:48:31.037Z,101474.42
2018-06-09T14:50:59.370Z,101473.54
2018-06-09T14:53:27.690Z,101476.58
2018-06-09T14:55:56.008Z,101474.45
2018-06-09T14:58:24.339Z,101475.59
2018-06-09T15:00:52.667Z,101468.19
2018-06-09T15:03:20.980Z,101464.70
2018-06-09T15:05:49.314Z,101465.48
2018-06-09T15:08:17.634Z,101461.73
2018-06-09T15:10:45.965Z,101460.86
2018-06-09T15:13:14.309Z,101462.91
2018-06-09T15:15:42.722Z,101459.86
2018-06-09T15:18:11.037Z,101456.41
2018-06-09T15:20:38.777Z,101459.86
2018-06-09T15:23:07.172Z,101459.64
2018-06-09T15:25:36.101Z,101456.30
2018-06-09T15:28:04.432Z,101448.09
2018-06-09T15:30:32.762Z,101445.11
2018-06-09T15:33:01.311Z,101443.29
2018-06-09T15:35:29.412Z,101438.59
2018-06-09T15:37:57.156Z,101435.48
2018-06-09T15:40:26.057Z,101429.67
2018-06-09T15:42:53.829Z,101429.02
2018-06-09T15:45:22.739Z,101431.26
2018-06-09T15:47:51.077Z,101432.03
2018-06-09T15:50:19.388Z,101433.52
2018-06-09T15:52:47.728Z,101423.55
2018-06-09T15:55:16.076Z,101419.57
2018-06-09T15:57:44.435Z,101418.83
2018-06-09T16:00:12.191Z,101418.53
2018-06-09T16:02:42.175Z,101424.27
2018-06-09T16:05:10.297Z,101429.72
2018-06-09T16:07:38.625Z,101428.12
2018-06-09T16:10:08.114Z,101425.38
2018-06-09T16:12:37.026Z,101430.07
2018-06-09T16:15:05.349Z,101431.44
2018-06-09T16:17:33.737Z,101434.80
2018-06-09T16:20:01.477Z,101439.98
2018-06-09T16:22:30.385Z,101439.69
2018-06-09T16:24:58.708Z,101436.75
2018-06-09T16:27:27.095Z,101436.28
2018-06-09T16:29:55.447Z,101435.80
2018-06-09T20:45:16.467Z,101412.11
2018-06-09T20:47:45.103Z,101414.23
2018-06-09T20:50:13.425Z,101408.69
2018-06-09T20:52:41.759Z,101405.17
2018-06-09T20:55:10.075Z,101402.58
2018-06-09T20:57:39.078Z,101401.04
2018-06-09T21:00:07.388Z,101398.34
2018-06-09T21:02:35.712Z,101396.23
2018-06-09T21:05:04.049Z,101396.66
2018-06-09T21:07:32.677Z,101395.97
2018-06-09T21:10:01.610Z,101395.38
2018-06-09T21:12:29.399Z,101396.60
2018-06-09T21:14:58.321Z,101395.09
2018-06-09T21:17:26.660Z,101396.83
2018-06-09T21:19:54.988Z,101395.42
2018-06-09T21:22:22.739Z,101390.96
2018-06-09T21:24:51.880Z,101392.11
2018-06-09T21:27:20.007Z,101389.66
2018-06-09T21:29:48.347Z,101389.42
2018-06-09T21:32:16.128Z,101384.12
2018-06-09T21:34:57.777Z,101386.09
2018-06-09T21:37:25.512Z,101383.16
2018-06-09T21:39:54.316Z,101380.34
2018-06-09T21:42:22.665Z,101384.39
2018-06-09T21:44:52.054Z,101381.57
2018-06-09T21:47:20.405Z,101383.64
2018-06-09T21:49:48.746Z,101381.48
2018-06-09T21:52:17.067Z,101379.47
2018-06-09T21:54:45.787Z,101385.64
2018-06-09T21:57:15.089Z,101384.97
2018-06-09T21:59:43.405Z,101387.48
2018-06-09T22:02:11.735Z,101389.95
2018-06-09T22:04:40.116Z,101387.36
2018-06-09T22:07:08.385Z,101385.09
2018-06-09T22:09:36.740Z,101381.83
2018-06-09T22:12:05.057Z,101386.20
2018-06-09T22:14:32.801Z,101386.86
2018-06-09T22:17:01.796Z,101381.12
2018-06-09T22:19:30.110Z,101383.02
2018-06-09T22:21:58.453Z,101380.93
2018-06-09T22:24:26.203Z,101381.29
2018-06-09T22:26:54.526Z,101375.58
2018-06-09T22:29:22.901Z,101377.81
2018-06-09T22:31:51.793Z,101372.18
2018-06-09T22:34:20.114Z,101371.32
2018-06-09T22:36:48.436Z,101364.42
2018-06-09T22:39:16.764Z,101365.75
2018-06-09T22:41:45.096Z,101367.53
2018-06-09T22:44:32.568Z,101364.82
2018-06-09T22:47:00.851Z,101362.75
2018-06-09T22:49:29.232Z,101364.73
2018-06-09T22:51:56.961Z,101368.16
2018-06-09T22:54:25.874Z,101363.70
2018-06-09T22:56:55.384Z,101359.61
2018-06-09T22:59:23.707Z,101359.55
2018-06-09T23:01:52.036Z,101363.94
2018-06-09T23:04:20.800Z,101364.84
2018-06-09T23:06:50.155Z,101364.59
2018-06-09T23:09:18.627Z,101363.73
2018-06-09T23:11:46.914Z,101364.25
2018-06-09T23:14:15.242Z,101360.84
2018-06-09T23:16:43.561Z,101361.20
2018-06-09T23:19:11.885Z,101355.10
2018-06-09T23:21:39.613Z,101354.21
2018-06-09T23:24:08.503Z,101353.54
2018-06-09T23:26:36.824Z,101354.55
2018-06-09T23:29:05.141Z,101358.70
2018-06-09T23:31:33.462Z,101352.97
2018-06-09T23:34:01.788Z,101353.25
2018-06-09T23:36:30.106Z,101344.58
2018-06-09T23:38:58.422Z,101348.41
2018-06-09T23:41:26.738Z,101346.34
2018-06-09T23:43:54.482Z,101347.08
2018-06-09T23:46:23.375Z,101340.56
2018-06-09T23:48:51.692Z,101342.83
2018-06-09T23:51:19.484Z,101340.83
2018-06-09T23:53:47.820Z,101338.61
2018-06-09T23:56:16.148Z,101332.50
2018-06-09T23:58:45.042Z,101338.37
